Time;durP1;ratioP1;P1;durP2;ratioP2;P2;SDS_P1;SDS_P2;PMS_P1;PMS_P2;Temp;Humidity;BMP_temperature;BMP_pressure;BME280_temperature;BME280_humidity;BME280_pressure;Samples;Min_cycle;Max_cycle;Signal;HPM_P1;HPM_P2
2021/06/14 00:02:26;;;;;;;2.47;2.10;;;;;;;16.35;60.05;94848.94;5156563;27;20433;-81
2021/06/14 00:04:53;;;;;;;2.37;2.10;;;;;;;16.40;59.96;94843.97;5156514;27;20440;-82
2021/06/14 00:07:21;;;;;;;4.90;2.13;;;;;;;16.46;59.49;94845.94;5156326;27;20439;-82
2021/06/14 00:09:48;;;;;;;2.60;2.40;;;;;;;16.41;59.55;94850.91;5156186;27;20527;-82
2021/06/14 00:12:21;;;;;;;2.30;2.10;;;;;;;16.45;59.39;94856.72;5156209;27;20576;-81
2021/06/14 00:14:50;;;;;;;1.93;1.83;;;;;;;16.52;60.03;94855.06;5156083;27;20483;-81
2021/06/14 00:17:17;;;;;;;2.70;1.90;;;;;;;16.50;59.07;94852.59;5155937;27;20493;-81
2021/06/14 00:19:44;;;;;;;3.30;2.17;;;;;;;16.51;58.95;94854.25;5156171;27;20508;-82
2021/06/14 00:22:11;;;;;;;5.37;2.27;;;;;;;16.54;59.56;94853.91;5156271;27;20459;-81
2021/06/14 00:24:38;;;;;;;2.50;2.30;;;;;;;16.60;59.88;94852.41;5156278;27;20616;-82
2021/06/14 00:27:07;;;;;;;4.80;2.50;;;;;;;16.50;59.68;94846.47;5155674;27;20447;-81
2021/06/14 00:29:34;;;;;;;4.13;2.37;;;;;;;16.47;59.56;94847.59;5156017;27;20445;-81
2021/06/14 00:32:02;;;;;;;9.73;3.17;;;;;;;16.40;60.48;94842.16;5155631;27;20457;-81
2021/06/14 00:34:29;;;;;;;4.60;2.30;;;;;;;16.44;60.22;94837.34;5119254;27;20440;-81
2021/06/14 00:36:56;;;;;;;2.60;2.40;;;;;;;16.41;60.08;94845.63;5102171;27;20434;-82
2021/06/14 00:39:23;;;;;;;4.50;2.93;;;;;;;16.43;60.56;94846.28;5119492;27;20504;-82
2021/06/14 00:41:51;;;;;;;4.27;2.43;;;;;;;16.37;60.28;94839.84;5155588;27;20485;-82
2021/06/14 00:44:18;;;;;;;5.83;2.50;;;;;;;16.33;61.32;94845.63;5155271;27;20443;-82
2021/06/14 00:46:45;;;;;;;3.00;2.70;;;;;;;16.29;61.64;94836.38;5136467;27;20506;-82
2021/06/14 00:49:13;;;;;;;4.07;2.33;;;;;;;16.23;61.28;94829.09;5155206;27;20500;-82
2021/06/14 00:51:40;;;;;;;5.30;2.97;;;;;;;16.28;61.58;94829.41;5155406;27;20477;-82
2021/06/14 00:54:07;;;;;;;2.40;2.17;;;;;;;16.20;61.80;94819.66;5155809;27;20444;-82
2021/06/14 00:56:34;;;;;;;3.00;2.67;;;;;;;16.12;62.27;94822.28;5155327;27;20473;-82
2021/06/14 00:59:01;;;;;;;7.67;2.53;;;;;;;16.12;62.25;94827.59;5155536;27;20441;-82
2021/06/14 01:01:29;;;;;;;2.90;2.60;;;;;;;16.13;62.39;94823.13;5155853;27;20514;-83
2021/06/14 01:03:56;;;;;;;5.53;3.00;;;;;;;16.09;62.72;94827.91;5155087;27;20528;-81
2021/06/14 01:06:24;;;;;;;4.30;3.00;;;;;;;16.09;63.86;94823.47;5155037;27;20451;-82
2021/06/14 01:08:53;;;;;;;3.13;2.47;;;;;;;16.08;62.49;94824.44;5155328;27;20828;-83
2021/06/14 01:11:26;;;;;;;2.90;2.70;;;;;;;16.08;63.10;94831.56;5155250;27;20486;-81
2021/06/14 01:14:00;;;;;;;3.40;2.77;;;;;;;16.09;63.76;94825.28;5155091;27;20501;-82
2021/06/14 01:16:34;;;;;;;4.80;2.30;;;;;;;16.12;63.10;94824.94;5103889;27;20507;-82
2021/06/14 01:19:10;;;;;;;3.03;2.50;;;;;;;16.10;63.18;94824.28;5155423;27;20436;-82
2021/06/14 01:21:44;;;;;;;5.00;2.67;;;;;;;16.06;63.42;94823.78;5135713;27;20482;-82
2021/06/14 01:24:41;;;;;;;3.63;3.07;;;;;;;16.09;63.79;94818.16;5154905;27;20537;-82
2021/06/14 01:27:38;;;;;;;2.67;2.57;;;;;;;16.10;63.51;94814.53;5137335;27;20463;-82
2021/06/14 01:30:08;;;;;;;4.10;2.90;;;;;;;16.07;63.68;94811.38;5155253;27;20441;-82
2021/06/14 01:32:37;;;;;;;5.93;3.13;;;;;;;15.99;64.16;94809.56;5118785;27;20433;-82
2021/06/14 01:35:05;;;;;;;3.00;2.80;;;;;;;16.06;64.96;94812.38;5155238;27;20446;-81
2021/06/14 01:37:34;;;;;;;6.70;3.60;;;;;;;16.02;63.93;94809.22;5155979;27;20502;-82
2021/06/14 01:40:02;;;;;;;3.13;2.90;;;;;;;16.00;64.24;94805.94;5155444;27;20448;-82
2021/06/14 01:42:30;;;;;;;2.73;2.23;;;;;;;16.07;64.15;94808.72;5155703;27;20537;-82
2021/06/14 01:45:00;;;;;;;4.13;2.97;;;;;;;16.14;64.15;94808.88;5155197;27;20498;-82
2021/06/14 01:47:27;;;;;;;9.17;3.40;;;;;;;16.17;64.28;94821.78;5155404;27;20492;-81
2021/06/14 01:49:55;;;;;;;5.80;3.30;;;;;;;16.19;63.84;94811.88;5154927;27;20773;-81
2021/06/14 01:52:22;;;;;;;3.33;2.83;;;;;;;16.10;64.40;94819.00;5154802;27;20451;-81
2021/06/14 01:54:51;;;;;;;5.00;2.50;;;;;;;16.00;63.95;94807.75;5155043;27;20435;-82
2021/06/14 01:57:18;;;;;;;7.50;3.37;;;;;;;16.04;64.67;94820.47;5155863;27;20975;-81
2021/06/14 01:59:47;;;;;;;5.67;2.80;;;;;;;16.04;64.86;94817.84;5101573;27;20533;-82
2021/06/14 02:02:16;;;;;;;4.00;3.33;;;;;;;16.08;64.48;94810.38;5155315;27;20480;-82
2021/06/14 02:04:47;;;;;;;3.10;2.80;;;;;;;16.06;65.12;94818.50;5154995;27;20447;-82
2021/06/14 02:07:15;;;;;;;3.00;2.80;;;;;;;16.05;65.25;94811.53;5154910;27;20518;-82
2021/06/14 02:09:43;;;;;;;8.97;3.20;;;;;;;16.09;65.49;94818.16;5154878;27;20448;-82
2021/06/14 02:12:11;;;;;;;3.20;2.70;;;;;;;16.13;64.97;94816.00;5154670;27;20488;-82
2021/06/14 02:14:40;;;;;;;2.77;2.53;;;;;;;16.05;64.90;94811.53;5154674;27;20508;-81
2021/06/14 02:17:10;;;;;;;3.67;3.27;;;;;;;16.00;65.35;94813.88;5155353;27;20442;-81
2021/06/14 02:19:40;;;;;;;3.83;2.87;;;;;;;15.98;65.34;94810.56;5158733;27;20468;-82
2021/06/14 02:22:09;;;;;;;3.60;3.23;;;;;;;15.94;65.07;94821.66;5158385;27;20536;-82
2021/06/14 02:24:36;;;;;;;4.77;3.57;;;;;;;15.95;65.72;94818.84;5158338;27;20482;-82
2021/06/14 02:27:04;;;;;;;4.97;4.23;;;;;;;15.92;65.45;94811.22;5158226;27;20450;-82
2021/06/14 02:29:31;;;;;;;3.50;3.20;;;;;;;15.88;66.17;94815.16;5158584;27;20498;-82
2021/06/14 02:31:58;;;;;;;5.47;2.67;;;;;;;15.87;65.94;94817.97;5157893;27;20497;-82
2021/06/14 02:34:26;;;;;;;3.90;3.30;;;;;;;15.81;66.07;94816.81;5157858;27;20928;-82
2021/06/14 02:36:56;;;;;;;7.23;3.43;;;;;;;15.82;66.42;94804.41;5158063;27;20960;-83
2021/06/14 02:39:27;;;;;;;6.47;3.40;;;;;;;15.69;66.39;94812.84;5158173;27;20448;-82
2021/06/14 02:41:54;;;;;;;3.53;2.80;;;;;;;15.60;66.29;94816.44;5158061;27;20480;-85
2021/06/14 02:44:22;;;;;;;5.00;3.60;;;;;;;15.53;67.17;94802.19;5157804;27;20489;-82
2021/06/14 02:46:50;;;;;;;4.53;3.30;;;;;;;15.48;67.67;94806.16;5158084;27;20483;-83
2021/06/14 02:49:18;;;;;;;3.43;3.17;;;;;;;15.48;68.18;94814.09;5157905;27;21495;-82
2021/06/14 02:51:46;;;;;;;9.13;3.20;;;;;;;15.49;67.63;94810.44;5158480;27;20828;-83
2021/06/14 02:54:18;;;;;;;4.00;3.10;;;;;;;15.47;67.99;94816.91;5157824;27;20437;-83
2021/06/14 02:56:49;;;;;;;5.00;3.57;;;;;;;15.49;67.82;94810.44;5158288;27;20444;-81
2021/06/14 02:59:18;;;;;;;3.40;3.20;;;;;;;15.53;68.24;94820.72;5157687;27;20492;-82
2021/06/14 03:01:48;;;;;;;3.87;3.13;;;;;;;15.54;68.18;94811.78;5157772;27;20484;-81
2021/06/14 03:04:16;;;;;;;3.80;3.43;;;;;;;15.57;68.14;94812.28;5157747;27;20447;-82
2021/06/14 03:06:45;;;;;;;5.63;3.60;;;;;;;15.59;67.90;94820.09;5158016;27;20540;-82
2021/06/14 03:09:13;;;;;;;6.03;3.93;;;;;;;15.63;67.89;94810.84;5157629;27;20445;-82
2021/06/14 03:11:43;;;;;;;5.33;3.80;;;;;;;15.61;67.34;94826.03;5157772;27;20442;-82
2021/06/14 03:14:12;;;;;;;4.33;4.03;;;;;;;15.59;68.34;94815.63;5157249;27;20444;-83
2021/06/14 03:16:40;;;;;;;5.60;3.93;;;;;;;15.54;68.06;94823.19;5157285;27;20449;-83
2021/06/14 03:19:09;;;;;;;3.80;3.50;;;;;;;15.56;68.24;94825.66;5157344;27;20452;-82
2021/06/14 03:21:37;;;;;;;7.50;3.37;;;;;;;15.63;67.77;94819.63;5157336;27;20509;-81
2021/06/14 03:24:06;;;;;;;5.93;2.70;;;;;;;15.72;67.32;94831.03;5157421;27;20485;-82
2021/06/14 03:26:38;;;;;;;4.80;3.00;;;;;;;15.86;67.36;94827.72;5104061;27;20445;-82
2021/06/14 03:29:08;;;;;;;6.10;2.97;;;;;;;16.01;66.64;94820.81;5157353;27;20519;-82
2021/06/14 03:31:36;;;;;;;5.70;3.47;;;;;;;16.05;66.41;94831.91;5157615;27;20451;-82
2021/06/14 03:34:04;;;;;;;4.90;3.47;;;;;;;15.98;66.53;94825.63;5156896;27;20450;-82
2021/06/14 03:36:32;;;;;;;4.33;3.03;;;;;;;16.01;66.42;94827.94;5157937;27;20466;-81
2021/06/14 03:39:01;;;;;;;3.93;3.23;;;;;;;16.05;67.29;94829.25;5157293;27;20445;-82
2021/06/14 03:41:28;;;;;;;7.30;3.40;;;;;;;16.35;66.53;94822.47;5157286;27;20813;-82
2021/06/14 03:43:55;;;;;;;6.23;3.80;;;;;;;16.67;64.98;94822.44;5156881;27;20441;-81
2021/06/14 03:46:24;;;;;;;7.20;3.00;;;;;;;16.88;64.25;94826.38;5157326;27;20566;-81
2021/06/14 03:48:51;;;;;;;3.77;3.47;;;;;;;16.99;63.61;94820.69;5157740;27;20469;-81
2021/06/14 03:51:18;;;;;;;4.20;3.70;;;;;;;17.18;62.99;94812.34;5157114;27;20825;-82
2021/06/14 03:53:56;;;;;;;4.30;3.77;;;;;;;17.20;62.86;94813.00;5156858;27;20914;-82
2021/06/14 03:56:24;;;;;;;8.23;3.40;;;;;;;17.01;63.61;94802.78;5156402;27;20440;-82
2021/06/14 03:58:51;;;;;;;2.93;2.73;;;;;;;16.76;64.29;94804.69;5156387;27;20494;-82
2021/06/14 04:01:19;;;;;;;5.20;3.40;;;;;;;16.69;64.38;94807.19;5156461;27;20479;-82
2021/06/14 04:03:57;;;;;;;5.80;4.10;;;;;;;16.54;65.14;94810.69;5119859;27;20447;-82
2021/06/14 04:06:24;;;;;;;6.27;3.40;;;;;;;16.26;65.47;94812.88;5156108;27;20445;-82
2021/06/14 04:08:51;;;;;;;3.77;3.47;;;;;;;16.16;66.83;94806.91;5156840;27;20440;-81
2021/06/14 04:11:18;;;;;;;3.90;3.57;;;;;;;16.04;66.98;94809.91;5156350;27;20785;-82
2021/06/14 04:13:45;;;;;;;4.60;3.53;;;;;;;15.94;67.50;94809.25;5156685;27;20481;-82
2021/06/14 04:16:12;;;;;;;3.00;2.80;;;;;;;15.82;67.15;94813.19;5155711;27;20445;-81
2021/06/14 04:18:39;;;;;;;3.30;3.10;;;;;;;15.77;67.23;94812.84;5156400;27;20446;-82
2021/06/14 04:21:08;;;;;;;4.73;3.13;;;;;;;15.64;67.75;94812.50;5156588;27;20445;-82
2021/06/14 04:23:35;;;;;;;4.77;3.70;;;;;;;15.54;68.16;94822.34;5155659;27;20483;-82
2021/06/14 04:26:02;;;;;;;5.60;3.57;;;;;;;15.56;68.38;94823.84;5156638;27;20442;-82
2021/06/14 04:28:29;;;;;;;3.43;3.10;;;;;;;15.90;70.43;94821.16;5120164;27;20446;-82
2021/06/14 04:30:56;;;;;;;3.80;3.17;;;;;;;16.53;65.73;94825.75;5156356;27;20504;-81
2021/06/14 04:33:23;;;;;;;3.67;2.73;;;;;;;17.06;63.31;94826.13;5156035;27;20979;-82
2021/06/14 04:35:51;;;;;;;3.07;2.77;;;;;;;17.43;62.12;94833.47;5156052;27;20477;-82
2021/06/14 04:38:20;;;;;;;3.80;3.40;;;;;;;17.68;60.73;94824.41;5156490;27;20474;-83
2021/06/14 04:40:48;;;;;;;5.90;2.90;;;;;;;17.92;60.23;94823.41;5102616;27;20442;-82
2021/06/14 04:43:15;;;;;;;3.30;3.10;;;;;;;18.08;58.93;94811.84;5155563;27;20505;-82
2021/06/14 04:45:42;;;;;;;4.40;3.23;;;;;;;18.29;58.22;94814.66;5155691;27;20442;-83
2021/06/14 04:48:09;;;;;;;5.27;3.90;;;;;;;18.50;57.72;94819.28;5155317;27;20490;-83
2021/06/14 04:50:36;;;;;;;3.37;3.07;;;;;;;18.66;57.01;94815.69;5155345;27;20446;-82
2021/06/14 04:53:03;;;;;;;3.80;3.00;;;;;;;18.95;56.58;94821.03;5155180;27;20505;-82
2021/06/14 04:55:32;;;;;;;7.00;3.13;;;;;;;19.07;55.88;94811.56;5155765;27;20445;-82
2021/06/14 04:57:59;;;;;;;5.37;3.00;;;;;;;19.29;55.56;94814.31;5155652;27;20946;-82
2021/06/14 05:00:27;;;;;;;7.70;3.30;;;;;;;19.55;55.06;94817.34;5156307;27;20496;-82
2021/06/14 05:02:54;;;;;;;3.13;2.93;;;;;;;19.88;54.84;94815.06;5155542;27;20509;-82
2021/06/14 05:05:21;;;;;;;3.40;3.10;;;;;;;20.34;53.04;94817.34;5119047;27;20474;-82
2021/06/14 05:07:48;;;;;;;5.97;3.17;;;;;;;20.49;51.96;94814.63;5155775;27;20448;-82
2021/06/14 05:10:15;;;;;;;3.70;3.40;;;;;;;20.78;51.47;94803.78;5155109;27;20931;-82
2021/06/14 05:12:44;;;;;;;3.97;3.57;;;;;;;21.12;51.23;94808.31;5156209;27;20448;-82
2021/06/14 05:15:12;;;;;;;6.73;2.93;;;;;;;21.00;49.54;94808.03;5154706;27;20445;-81
2021/06/14 05:17:39;;;;;;;3.97;3.20;;;;;;;20.60;50.94;94809.59;5155178;27;20839;-82
2021/06/14 05:20:08;;;;;;;5.03;2.50;;;;;;;20.47;50.77;94811.31;5154977;27;20472;-82
2021/06/14 05:22:35;;;;;;;3.63;3.40;;;;;;;20.25;51.65;94810.50;5118815;27;20885;-82
2021/06/14 05:25:02;;;;;;;3.57;2.90;;;;;;;19.82;52.09;94804.34;5155210;27;20475;-82
2021/06/14 05:27:29;;;;;;;2.87;2.57;;;;;;;19.59;53.77;94799.97;5154963;27;20451;-82
2021/06/14 05:29:58;;;;;;;3.37;3.07;;;;;;;19.56;53.26;94819.00;5154855;27;20922;-82
2021/06/14 05:32:25;;;;;;;3.47;2.70;;;;;;;19.90;52.59;94820.19;5155134;27;20448;-82
2021/06/14 05:34:52;;;;;;;6.17;2.97;;;;;;;20.16;52.22;94823.13;5154973;27;20499;-81
2021/06/14 05:37:19;;;;;;;3.50;2.80;;;;;;;20.51;51.27;94804.59;5155050;27;20434;-82
2021/06/14 05:39:46;;;;;;;4.13;3.13;;;;;;;20.81;50.31;94805.22;5154944;27;20441;-82
2021/06/14 05:42:13;;;;;;;7.23;3.17;;;;;;;21.07;49.64;94810.72;5154766;27;20810;-82
2021/06/14 05:44:40;;;;;;;3.37;3.00;;;;;;;21.25;49.58;94804.91;5154983;27;20437;-82
2021/06/14 05:47:08;;;;;;;5.90;3.20;;;;;;;21.30;48.87;94805.13;5154787;27;20925;-82
2021/06/14 05:49:35;;;;;;;3.43;3.10;;;;;;;21.67;47.25;94803.84;5101199;27;20494;-82
2021/06/14 05:52:03;;;;;;;3.77;2.77;;;;;;;21.65;46.65;94796.03;5120178;27;20468;-82
2021/06/14 05:54:30;;;;;;;3.50;2.70;;;;;;;21.72;46.27;94800.59;5139648;27;20440;-81
2021/06/14 05:56:57;;;;;;;3.83;2.63;;;;;;;21.41;47.01;94806.44;5158930;27;20445;-82
2021/06/14 05:59:24;;;;;;;3.00;2.70;;;;;;;21.60;47.08;94795.81;5158673;27;20502;-82
2021/06/14 06:01:51;;;;;;;3.63;3.33;;;;;;;21.28;46.88;94800.00;5158905;27;20507;-81
2021/06/14 06:04:20;;;;;;;2.93;2.37;;;;;;;21.06;47.15;94790.41;5105523;27;20438;-82
2021/06/14 06:06:47;;;;;;;4.60;2.97;;;;;;;20.84;47.87;94791.53;5158708;27;20449;-82
2021/06/14 06:09:14;;;;;;;4.37;2.60;;;;;;;20.40;47.98;94796.09;5158425;27;20498;-82
2021/06/14 06:11:41;;;;;;;5.37;2.77;;;;;;;19.85;49.63;94801.28;5158644;27;20493;-82
2021/06/14 06:14:08;;;;;;;4.40;2.40;;;;;;;19.39;50.17;94802.41;5158657;27;20497;-81
2021/06/14 06:16:35;;;;;;;3.30;2.63;;;;;;;19.30;52.60;94806.16;5158329;27;20872;-82
2021/06/14 06:19:02;;;;;;;3.90;2.93;;;;;;;18.84;52.15;94803.72;5158311;27;20497;-84
2021/06/14 06:21:31;;;;;;;4.90;3.73;;;;;;;18.58;53.16;94817.41;5121758;27;20522;-81
2021/06/14 06:23:58;;;;;;;4.90;2.83;;;;;;;18.49;53.35;94810.47;5157885;27;20498;-81
2021/06/14 06:26:25;;;;;;;8.57;2.80;;;;;;;18.39;55.02;94804.63;5158352;27;20518;-82
2021/06/14 06:28:54;;;;;;;2.90;2.70;;;;;;;18.60;55.34;94805.75;5121824;27;20461;-81
2021/06/14 06:31:21;;;;;;;3.23;2.90;;;;;;;19.17;53.85;94795.34;5158214;27;20476;-81
2021/06/14 06:33:48;;;;;;;3.20;2.90;;;;;;;19.84;52.52;94799.63;5158514;27;21003;-81
2021/06/14 06:36:15;;;;;;;4.40;2.47;;;;;;;20.25;50.43;94797.19;5158044;27;20447;-81
2021/06/14 06:38:44;;;;;;;3.20;2.90;;;;;;;20.73;50.08;94807.03;5158194;27;20448;-82
2021/06/14 06:41:11;;;;;;;3.00;2.80;;;;;;;20.72;48.22;94804.56;5158481;27;20447;-81
2021/06/14 06:43:38;;;;;;;3.77;2.80;;;;;;;20.55;48.96;94803.22;5121980;27;20487;-82
2021/06/14 06:46:06;;;;;;;3.20;3.00;;;;;;;20.69;49.24;94791.59;5138673;27;20854;-82
2021/06/14 06:48:34;;;;;;;4.67;3.03;;;;;;;20.60;49.21;94792.78;5158037;27;20445;-82
2021/06/14 06:51:01;;;;;;;2.90;2.70;;;;;;;20.59;48.50;94797.28;5157521;27;20521;-82
2021/06/14 06:53:29;;;;;;;4.60;2.60;;;;;;;20.52;48.17;94795.56;5157863;27;20498;-82
2021/06/14 06:55:59;;;;;;;3.20;2.60;;;;;;;20.41;50.05;94794.25;5157678;27;20775;-81
2021/06/14 06:58:26;;;;;;;3.23;2.93;;;;;;;20.45;49.75;94794.69;5158025;27;20437;-81
2021/06/14 07:00:54;;;;;;;3.17;2.87;;;;;;;20.15;48.00;94791.34;5157687;27;20509;-82
2021/06/14 07:03:21;;;;;;;3.40;2.90;;;;;;;19.99;48.52;94793.25;5156708;27;20483;-82
2021/06/14 07:05:48;;;;;;;3.80;2.83;;;;;;;19.82;49.92;94786.50;5157319;27;20472;-82
2021/06/14 07:08:16;;;;;;;4.47;2.80;;;;;;;19.73;48.72;94792.97;5157625;27;20501;-83
2021/06/14 07:10:44;;;;;;;3.50;2.80;;;;;;;19.55;50.07;94796.06;5157520;27;20472;-82
2021/06/14 07:13:15;;;;;;;3.20;2.60;;;;;;;19.50;51.06;94799.25;5157568;27;20504;-81
2021/06/14 07:15:42;;;;;;;4.57;2.83;;;;;;;19.56;51.30;94797.69;5121594;27;20462;-81
2021/06/14 07:18:09;;;;;;;5.67;3.60;;;;;;;19.50;51.56;94795.75;5157174;27;20435;-82
2021/06/14 07:20:36;;;;;;;4.30;3.00;;;;;;;19.44;50.05;94793.84;5156271;27;20428;-84
2021/06/14 07:23:04;;;;;;;5.93;3.13;;;;;;;19.34;49.78;94782.66;5120126;27;20254;-82
2021/06/14 07:25:31;;;;;;;2.60;2.40;;;;;;;19.38;49.18;94794.59;5157011;27;20465;-82
2021/06/14 07:27:58;;;;;;;5.53;2.17;;;;;;;19.59;49.52;94794.66;5157117;27;20476;-81
2021/06/14 07:30:26;;;;;;;4.60;3.00;;;;;;;19.89;48.52;94791.91;5157023;27;20436;-81
2021/06/14 07:32:53;;;;;;;5.93;2.57;;;;;;;20.37;47.17;94791.13;5103315;27;20493;-82
2021/06/14 07:35:20;;;;;;;5.03;2.50;;;;;;;20.76;47.27;94795.13;5156911;27;20436;-82
2021/06/14 07:37:47;;;;;;;14.70;2.93;;;;;;;21.33;45.74;94791.41;5157001;27;20443;-82
2021/06/14 07:40:15;;;;;;;6.33;2.87;;;;;;;21.47;43.90;94787.78;5157071;27;20486;-82
2021/06/14 07:42:42;;;;;;;4.40;2.80;;;;;;;21.52;44.00;94789.84;5120986;27;20477;-82
2021/06/14 07:45:11;;;;;;;3.57;3.00;;;;;;;21.88;43.47;94785.00;5156732;27;20541;-82
2021/06/14 07:47:39;;;;;;;6.17;2.70;;;;;;;22.05;41.25;94782.00;5156849;27;20478;-82
2021/06/14 07:50:07;;;;;;;5.90;2.67;;;;;;;22.19;41.89;94781.81;5157267;27;20965;-82
2021/06/14 07:52:35;;;;;;;4.73;2.80;;;;;;;22.03;41.51;94766.16;5156918;27;20516;-84
2021/06/14 07:55:02;;;;;;;3.83;2.30;;;;;;;21.63;41.51;94771.38;5156693;27;20449;-81
2021/06/14 07:57:29;;;;;;;2.67;2.40;;;;;;;21.43;42.49;94775.84;5137387;27;20971;-82
2021/06/14 07:59:56;;;;;;;2.87;2.20;;;;;;;21.21;42.76;94768.94;5156782;27;20434;-82
2021/06/14 08:02:23;;;;;;;2.73;2.53;;;;;;;20.79;41.60;94762.75;5156255;27;20473;-82
2021/06/14 08:04:51;;;;;;;5.13;2.60;;;;;;;20.30;42.95;94774.28;5156078;27;20924;-83
2021/06/14 08:07:18;;;;;;;2.83;2.13;;;;;;;19.95;43.52;94775.16;5156430;27;20445;-82
2021/06/14 08:09:47;;;;;;;5.80;2.43;;;;;;;19.77;43.71;94772.94;5156146;27;20556;-83
2021/06/14 08:12:14;;;;;;;3.20;2.83;;;;;;;19.57;44.01;94770.06;5102629;27;20910;-82
2021/06/14 08:14:41;;;;;;;3.30;3.10;;;;;;;19.29;43.50;94777.91;5118730;27;20431;-84
2021/06/14 08:17:09;;;;;;;11.07;3.10;;;;;;;19.21;43.72;94777.19;5155873;27;20494;-84
2021/06/14 08:19:41;;;;;;;6.20;2.40;;;;;;;19.07;44.32;94786.81;5155850;27;20546;-82
2021/06/14 08:22:31;;;;;;;4.63;2.73;;;;;;;18.91;44.86;94782.53;5119187;27;20449;-83
2021/06/14 08:25:04;;;;;;;2.90;2.70;;;;;;;18.84;45.21;94784.28;5156120;27;20486;-82
2021/06/14 08:27:32;;;;;;;4.40;2.77;;;;;;;18.75;46.08;94785.34;5155814;27;20478;-82
2021/06/14 08:29:59;;;;;;;2.60;2.40;;;;;;;18.79;46.07;94783.97;5103034;27;20451;-81
2021/06/14 08:32:26;;;;;;;3.43;2.50;;;;;;;18.82;46.80;94788.94;5155792;27;20503;-82
2021/06/14 08:34:53;;;;;;;8.20;2.30;;;;;;;18.82;47.23;94791.59;5155832;27;20445;-82
2021/06/14 08:37:21;;;;;;;2.80;2.50;;;;;;;18.69;46.93;94786.09;5155514;27;20447;-84
2021/06/14 08:39:48;;;;;;;3.10;2.80;;;;;;;18.54;49.56;94794.03;5119013;27;20438;-82
2021/06/14 08:42:16;;;;;;;6.97;2.90;;;;;;;18.44;50.98;94799.56;5155687;27;20446;-82
2021/06/14 08:44:43;;;;;;;4.30;2.80;;;;;;;18.29;52.96;94796.06;5155448;27;20486;-82
2021/06/14 08:47:12;;;;;;;3.40;3.10;;;;;;;18.35;54.74;94800.66;5102505;27;20439;-82
2021/06/14 08:49:39;;;;;;;3.00;2.70;;;;;;;18.42;56.50;94809.56;5155577;27;20514;-82
2021/06/14 08:52:07;;;;;;;2.90;2.70;;;;;;;18.47;57.52;94807.19;5155148;27;20509;-83
2021/06/14 08:54:40;;;;;;;6.40;3.20;;;;;;;18.40;59.24;94811.56;5155738;27;20463;-82
2021/06/14 08:57:08;;;;;;;3.63;3.30;;;;;;;18.17;61.60;94810.78;5155034;27;20806;-82
2021/06/14 08:59:35;;;;;;;4.23;3.17;;;;;;;17.86;62.70;94819.63;5155293;27;20471;-83
2021/06/14 09:02:03;;;;;;;3.43;3.13;;;;;;;17.62;64.62;94825.03;5155184;27;20478;-82
2021/06/14 09:04:30;;;;;;;4.10;3.80;;;;;;;17.49;65.58;94828.28;5155244;27;20484;-82
2021/06/14 09:06:57;;;;;;;6.17;3.13;;;;;;;17.34;62.76;94822.88;5155294;27;20794;-82
2021/06/14 09:09:24;;;;;;;3.33;3.03;;;;;;;17.33;65.61;94823.88;5154589;27;20441;-81
2021/06/14 09:11:55;;;;;;;3.33;2.90;;;;;;;17.57;67.32;94811.47;5155216;27;20441;-85
2021/06/14 09:14:23;;;;;;;4.90;3.10;;;;;;;17.85;67.85;94806.53;5154667;27;20449;-82
2021/06/14 09:16:51;;;;;;;4.17;3.70;;;;;;;18.18;68.25;94802.63;5154841;27;20871;-82
2021/06/14 09:19:26;;;;;;;6.70;3.60;;;;;;;18.76;64.19;94792.31;5155074;27;20441;-82
2021/06/14 09:21:56;;;;;;;5.30;3.47;;;;;;;19.23;61.22;94791.13;5155178;27;20438;-84
2021/06/14 09:24:25;;;;;;;6.63;3.33;;;;;;;19.54;62.45;94785.59;5155191;27;20498;-88
2021/06/14 09:26:54;;;;;;;6.87;3.60;;;;;;;19.79;62.21;94792.22;5118942;27;20792;-85
2021/06/14 09:29:27;;;;;;;4.47;3.97;;;;;;;19.87;60.57;94778.78;5155013;27;20449;-87
2021/06/14 09:31:56;;;;;;;9.27;3.77;;;;;;;20.38;61.74;94770.63;5155275;27;20943;-86
2021/06/14 09:34:36;;;;;;;3.60;2.80;;;;;;;20.85;56.75;94767.31;5155815;27;20444;-85
2021/06/14 09:37:07;;;;;;;3.63;2.50;;;;;;;20.97;51.66;94776.41;5161447;27;20449;-87
2021/06/14 09:39:38;;;;;;;7.03;3.90;;;;;;;21.01;54.73;94766.97;5155126;27;20483;-84
2021/06/14 09:42:19;;;;;;;3.93;3.27;;;;;;;20.81;51.90;94771.38;5154851;27;20436;-85
2021/06/14 09:44:48;;;;;;;3.30;2.60;;;;;;;20.62;50.05;94777.41;5155090;27;20494;-85
2021/06/14 09:47:16;;;;;;;3.57;3.20;;;;;;;20.26;53.77;94793.50;5155632;27;20441;-85
2021/06/14 09:49:55;;;;;;;5.77;3.00;;;;;;;19.68;55.75;94804.19;5155324;27;20485;-86
2021/06/14 09:52:24;;;;;;;9.37;2.63;;;;;;;18.82;58.75;94815.53;5155656;27;20958;-86
2021/06/14 09:54:51;;;;;;;7.87;3.47;;;;;;;18.56;60.17;94816.75;5154800;27;20447;-85
2021/06/14 09:57:27;;;;;;;2.50;2.30;;;;;;;18.16;61.10;94815.25;5149580;27;20976;-86
2021/06/14 10:00:05;;;;;;;3.47;2.87;;;;;;;18.00;63.54;94810.09;5155564;27;20441;-86
2021/06/14 10:02:35;;;;;;;4.53;3.30;;;;;;;18.03;65.27;94815.03;5156471;27;20438;-87
2021/06/14 10:05:03;;;;;;;9.10;3.20;;;;;;;18.24;67.75;94817.03;5119806;27;20477;-87
2021/06/14 10:07:30;;;;;;;4.23;2.97;;;;;;;18.39;67.42;94819.72;5154952;27;20445;-87
2021/06/14 10:09:57;;;;;;;8.57;3.37;;;;;;;18.52;66.25;94819.97;5154644;27;20487;-87
2021/06/14 10:12:27;;;;;;;5.47;2.87;;;;;;;18.60;63.65;94816.38;5155071;27;20431;-85
2021/06/14 10:14:56;;;;;;;4.00;2.80;;;;;;;18.69;63.54;94815.31;5154394;27;20907;-85
2021/06/14 10:17:38;;;;;;;3.53;2.63;;;;;;;18.64;60.37;94817.72;5154424;27;20449;-84
2021/06/14 10:20:14;;;;;;;2.83;2.53;;;;;;;18.93;59.75;94822.22;5154832;27;20980;-84
2021/06/14 10:22:42;;;;;;;2.27;2.17;;;;;;;19.00;59.41;94829.28;5152024;27;20491;-82
2021/06/14 10:25:10;;;;;;;6.13;3.33;;;;;;;19.13;60.71;94826.81;5154117;27;20593;-80
2021/06/14 10:27:39;;;;;;;6.73;3.20;;;;;;;19.14;61.61;94823.16;5153631;27;20471;-80
2021/06/14 10:30:08;;;;;;;6.37;2.60;;;;;;;18.99;61.12;94824.97;5154186;27;20443;-81
2021/06/14 10:32:37;;;;;;;3.50;2.70;;;;;;;18.93;62.28;94823.06;5154087;27;20901;-80
2021/06/14 10:35:06;;;;;;;4.63;2.90;;;;;;;18.90;61.21;94815.44;5153882;27;20448;-80
2021/06/14 10:37:36;;;;;;;3.37;3.07;;;;;;;18.83;60.40;94814.53;5154186;27;20439;-80
2021/06/14 10:40:04;;;;;;;3.70;2.53;;;;;;;18.86;61.68;94809.66;5157130;27;20912;-82
2021/06/14 10:42:32;;;;;;;3.23;2.90;;;;;;;18.79;59.83;94811.41;5158118;27;20912;-81
2021/06/14 10:45:01;;;;;;;2.93;2.73;;;;;;;18.84;61.49;94808.19;5143237;27;20536;-82
2021/06/14 10:47:29;;;;;;;3.40;3.10;;;;;;;18.74;62.08;94797.81;5137088;27;20455;-84
2021/06/14 10:49:56;;;;;;;3.13;2.83;;;;;;;18.66;62.34;94792.59;5137035;27;20802;-83
2021/06/14 10:52:23;;;;;;;3.70;2.93;;;;;;;18.68;63.18;94792.41;5137049;27;21046;-83
2021/06/14 10:54:50;;;;;;;5.07;3.30;;;;;;;18.76;63.80;94794.97;5136836;27;20504;-83
2021/06/14 10:57:19;;;;;;;5.93;3.80;;;;;;;18.76;63.72;94787.81;5136599;27;20874;-85
2021/06/14 10:59:47;;;;;;;4.77;3.80;;;;;;;18.80;64.37;94788.31;5136641;27;20445;-84
2021/06/14 11:02:18;;;;;;;4.77;3.90;;;;;;;18.72;65.68;94783.88;5136734;27;20452;-84
2021/06/14 11:04:45;;;;;;;3.63;3.30;;;;;;;18.64;67.75;94789.28;5142107;27;20480;-85
2021/06/14 11:07:12;;;;;;;4.20;3.73;;;;;;;18.47;68.18;94783.28;5136307;27;20479;-86
2021/06/14 11:09:41;;;;;;;7.20;3.47;;;;;;;18.45;69.08;94782.63;5136140;27;20496;-85
2021/06/14 11:12:10;;;;;;;8.33;3.60;;;;;;;18.36;66.93;94773.09;5136203;27;20438;-84
2021/06/14 11:14:40;;;;;;;3.83;3.43;;;;;;;18.36;68.22;94778.41;5136568;27;20454;-84
2021/06/14 11:17:24;;;;;;;10.97;3.67;;;;;;;18.31;66.69;94767.50;5136007;27;20844;-84
2021/06/14 11:19:52;;;;;;;3.87;3.37;;;;;;;18.32;67.03;94770.97;5136474;27;20891;-84
2021/06/14 11:22:20;;;;;;;3.83;3.53;;;;;;;18.39;66.75;94767.41;5135915;27;20910;-85
2021/06/14 11:24:48;;;;;;;3.50;3.20;;;;;;;18.35;64.94;94763.47;5136274;27;20836;-86
2021/06/14 11:27:16;;;;;;;6.43;3.90;;;;;;;18.33;66.09;94756.69;5136206;27;20450;-84
2021/06/14 11:29:46;;;;;;;4.97;3.20;;;;;;;18.35;65.06;94757.34;5135913;27;20445;-84
2021/06/14 11:32:19;;;;;;;3.50;3.23;;;;;;;18.38;64.74;94759.63;5082694;27;20434;-83
2021/06/14 11:34:50;;;;;;;4.67;3.57;;;;;;;18.34;63.13;94766.31;5136084;27;20442;-83
2021/06/14 11:37:17;;;;;;;7.40;3.13;;;;;;;18.33;64.38;94760.19;5135710;27;20496;-85
2021/06/14 11:39:45;;;;;;;10.20;4.50;;;;;;;18.43;64.58;94765.22;5136059;27;20897;-84
2021/06/14 11:42:15;;;;;;;3.87;3.57;;;;;;;18.53;63.88;94757.81;5135358;27;20447;-84